sensor_id;sensor_type;location;lat;lon;timestamp;P1;durP1;ratioP1;P2;durP2;ratioP2
25615;SDS011;13482;48.234;13.006;2023-02-01T00:01:06;2.63;;;1.55;;
25615;SDS011;13482;48.234;13.006;2023-02-01T00:03:34;2.58;;;1.27;;
25615;SDS011;13482;48.234;13.006;2023-02-01T00:06:02;2.22;;;1.30;;
25615;SDS011;13482;48.234;13.006;2023-02-01T00:08:29;2.63;;;1.48;;
25615;SDS011;13482;48.234;13.006;2023-02-01T00:10:57;3.33;;;1.58;;
25615;SDS011;13482;48.234;13.006;2023-02-01T00:13:34;2.80;;;1.63;;
25615;SDS011;13482;48.234;13.006;2023-02-01T00:16:13;3.85;;;1.40;;
25615;SDS011;13482;48.234;13.006;2023-02-01T00:18:43;2.63;;;1.60;;
25615;SDS011;13482;48.234;13.006;2023-02-01T00:21:17;2.25;;;1.40;;
25615;SDS011;13482;48.234;13.006;2023-02-01T00:23:46;3.03;;;1.50;;
25615;SDS011;13482;48.234;13.006;2023-02-01T00:26:18;2.88;;;1.30;;
25615;SDS011;13482;48.234;13.006;2023-02-01T00:28:53;2.17;;;1.20;;
25615;SDS011;13482;48.234;13.006;2023-02-01T00:31:20;3.45;;;1.67;;
25615;SDS011;13482;48.234;13.006;2023-02-01T00:33:48;4.15;;;1.42;;
25615;SDS011;13482;48.234;13.006;2023-02-01T00:36:15;3.50;;;1.85;;
25615;SDS011;13482;48.234;13.006;2023-02-01T00:38:43;4.20;;;2.00;;
25615;SDS011;13482;48.234;13.006;2023-02-01T00:41:12;3.25;;;1.50;;
25615;SDS011;13482;48.234;13.006;2023-02-01T00:43:42;2.83;;;1.50;;
25615;SDS011;13482;48.234;13.006;2023-02-01T00:46:10;2.10;;;1.35;;
25615;SDS011;13482;48.234;13.006;2023-02-01T00:48:39;2.05;;;1.17;;
25615;SDS011;13482;48.234;13.006;2023-02-01T00:51:07;2.90;;;1.50;;
25615;SDS011;13482;48.234;13.006;2023-02-01T00:56:05;2.13;;;1.20;;
25615;SDS011;13482;48.234;13.006;2023-02-01T00:58:33;2.58;;;1.42;;
25615;SDS011;13482;48.234;13.006;2023-02-01T01:03:39;2.72;;;1.50;;
25615;SDS011;13482;48.234;13.006;2023-02-01T01:06:11;2.90;;;1.58;;
25615;SDS011;13482;48.234;13.006;2023-02-01T01:08:41;2.10;;;1.20;;
25615;SDS011;13482;48.234;13.006;2023-02-01T01:11:14;2.38;;;1.40;;
25615;SDS011;13482;48.234;13.006;2023-02-01T01:13:48;2.20;;;1.40;;
25615;SDS011;13482;48.234;13.006;2023-02-01T01:16:16;2.08;;;1.17;;
25615;SDS011;13482;48.234;13.006;2023-02-01T01:18:45;2.70;;;1.50;;
25615;SDS011;13482;48.234;13.006;2023-02-01T01:21:13;2.75;;;1.50;;
25615;SDS011;13482;48.234;13.006;2023-02-01T01:23:41;2.70;;;1.42;;
25615;SDS011;13482;48.234;13.006;2023-02-01T01:26:10;3.15;;;1.17;;
25615;SDS011;13482;48.234;13.006;2023-02-01T01:28:46;1.92;;;1.30;;
25615;SDS011;13482;48.234;13.006;2023-02-01T01:31:14;2.42;;;1.23;;
25615;SDS011;13482;48.234;13.006;2023-02-01T01:33:44;3.25;;;1.30;;
25615;SDS011;13482;48.234;13.006;2023-02-01T01:36:14;2.72;;;1.50;;
25615;SDS011;13482;48.234;13.006;2023-02-01T01:38:42;2.40;;;1.23;;
25615;SDS011;13482;48.234;13.006;2023-02-01T01:41:12;2.33;;;1.50;;
25615;SDS011;13482;48.234;13.006;2023-02-01T01:43:53;3.60;;;1.38;;
25615;SDS011;13482;48.234;13.006;2023-02-01T01:46:33;2.38;;;1.27;;
25615;SDS011;13482;48.234;13.006;2023-02-01T01:49:08;2.20;;;0.93;;
25615;SDS011;13482;48.234;13.006;2023-02-01T01:51:46;1.48;;;1.00;;
25615;SDS011;13482;48.234;13.006;2023-02-01T01:54:21;2.35;;;1.20;;
25615;SDS011;13482;48.234;13.006;2023-02-01T01:57:02;2.08;;;1.20;;
25615;SDS011;13482;48.234;13.006;2023-02-01T01:59:34;2.15;;;1.20;;
25615;SDS011;13482;48.234;13.006;2023-02-01T02:02:04;1.35;;;0.88;;
25615;SDS011;13482;48.234;13.006;2023-02-01T02:04:32;2.17;;;1.05;;
25615;SDS011;13482;48.234;13.006;2023-02-01T02:07:09;2.13;;;1.00;;
25615;SDS011;13482;48.234;13.006;2023-02-01T02:09:44;2.00;;;1.00;;
25615;SDS011;13482;48.234;13.006;2023-02-01T02:12:25;2.65;;;1.13;;
25615;SDS011;13482;48.234;13.006;2023-02-01T02:14:53;2.40;;;1.20;;
25615;SDS011;13482;48.234;13.006;2023-02-01T02:17:31;2.03;;;1.10;;
25615;SDS011;13482;48.234;13.006;2023-02-01T02:26:12;2.88;;;1.35;;
25615;SDS011;13482;48.234;13.006;2023-02-01T02:32:33;2.80;;;1.00;;
25615;SDS011;13482;48.234;13.006;2023-02-01T02:35:33;1.80;;;0.90;;
25615;SDS011;13482;48.234;13.006;2023-02-01T02:41:57;1.55;;;0.85;;
25615;SDS011;13482;48.234;13.006;2023-02-01T02:45:08;1.77;;;1.00;;
25615;SDS011;13482;48.234;13.006;2023-02-01T02:50:54;1.80;;;0.90;;
25615;SDS011;13482;48.234;13.006;2023-02-01T02:54:09;2.20;;;1.15;;
25615;SDS011;13482;48.234;13.006;2023-02-01T02:57:00;2.00;;;1.10;;
25615;SDS011;13482;48.234;13.006;2023-02-01T02:59:51;1.77;;;1.00;;
25615;SDS011;13482;48.234;13.006;2023-02-01T03:02:38;1.65;;;1.00;;
25615;SDS011;13482;48.234;13.006;2023-02-01T03:05:24;2.83;;;1.45;;
25615;SDS011;13482;48.234;13.006;2023-02-01T03:08:03;2.05;;;1.00;;
25615;SDS011;13482;48.234;13.006;2023-02-01T03:10:42;2.15;;;1.05;;
25615;SDS011;13482;48.234;13.006;2023-02-01T03:16:24;1.70;;;1.10;;
25615;SDS011;13482;48.234;13.006;2023-02-01T03:19:19;2.28;;;1.10;;
25615;SDS011;13482;48.234;13.006;2023-02-01T03:22:01;1.75;;;1.10;;
25615;SDS011;13482;48.234;13.006;2023-02-01T03:24:35;2.42;;;1.35;;
25615;SDS011;13482;48.234;13.006;2023-02-01T03:32:50;2.35;;;1.30;;
25615;SDS011;13482;48.234;13.006;2023-02-01T03:41:13;1.98;;;1.20;;
25615;SDS011;13482;48.234;13.006;2023-02-01T03:44:13;1.80;;;1.13;;
25615;SDS011;13482;48.234;13.006;2023-02-01T03:46:54;2.08;;;1.02;;
25615;SDS011;13482;48.234;13.006;2023-02-01T03:49:45;2.30;;;1.30;;
25615;SDS011;13482;48.234;13.006;2023-02-01T03:52:18;1.95;;;1.25;;
25615;SDS011;13482;48.234;13.006;2023-02-01T03:55:04;1.95;;;1.13;;
25615;SDS011;13482;48.234;13.006;2023-02-01T03:57:34;2.60;;;1.30;;
25615;SDS011;13482;48.234;13.006;2023-02-01T04:00:08;3.25;;;1.60;;
25615;SDS011;13482;48.234;13.006;2023-02-01T04:02:50;2.40;;;1.40;;
25615;SDS011;13482;48.234;13.006;2023-02-01T04:05:19;3.22;;;1.23;;
25615;SDS011;13482;48.234;13.006;2023-02-01T04:07:47;3.90;;;1.48;;
25615;SDS011;13482;48.234;13.006;2023-02-01T04:10:14;2.38;;;1.40;;
25615;SDS011;13482;48.234;13.006;2023-02-01T04:12:45;2.63;;;1.38;;
25615;SDS011;13482;48.234;13.006;2023-02-01T04:15:12;2.22;;;1.50;;
25615;SDS011;13482;48.234;13.006;2023-02-01T04:17:39;2.33;;;1.42;;
25615;SDS011;13482;48.234;13.006;2023-02-01T04:20:07;2.58;;;1.40;;
25615;SDS011;13482;48.234;13.006;2023-02-01T04:22:35;2.22;;;1.35;;
25615;SDS011;13482;48.234;13.006;2023-02-01T04:25:02;2.05;;;1.20;;
25615;SDS011;13482;48.234;13.006;2023-02-01T04:27:32;2.28;;;1.45;;
25615;SDS011;13482;48.234;13.006;2023-02-01T04:29:59;2.38;;;1.27;;
25615;SDS011;13482;48.234;13.006;2023-02-01T04:32:26;2.15;;;1.30;;
25615;SDS011;13482;48.234;13.006;2023-02-01T04:34:53;1.77;;;1.08;;
25615;SDS011;13482;48.234;13.006;2023-02-01T04:37:20;2.65;;;1.60;;
25615;SDS011;13482;48.234;13.006;2023-02-01T04:39:47;1.85;;;1.20;;
25615;SDS011;13482;48.234;13.006;2023-02-01T04:42:14;2.53;;;1.30;;
25615;SDS011;13482;48.234;13.006;2023-02-01T04:44:41;2.35;;;1.20;;
25615;SDS011;13482;48.234;13.006;2023-02-01T04:47:09;2.30;;;1.35;;
25615;SDS011;13482;48.234;13.006;2023-02-01T04:49:37;2.55;;;1.30;;
25615;SDS011;13482;48.234;13.006;2023-02-01T04:52:04;3.50;;;1.60;;
25615;SDS011;13482;48.234;13.006;2023-02-01T04:54:31;4.03;;;1.70;;
25615;SDS011;13482;48.234;13.006;2023-02-01T04:56:58;3.50;;;1.42;;
25615;SDS011;13482;48.234;13.006;2023-02-01T04:59:26;3.05;;;1.67;;
25615;SDS011;13482;48.234;13.006;2023-02-01T05:01:54;2.80;;;1.50;;
25615;SDS011;13482;48.234;13.006;2023-02-01T05:04:21;2.42;;;1.60;;
25615;SDS011;13482;48.234;13.006;2023-02-01T05:06:48;2.25;;;1.50;;
25615;SDS011;13482;48.234;13.006;2023-02-01T05:09:15;2.55;;;1.50;;
25615;SDS011;13482;48.234;13.006;2023-02-01T05:11:42;2.92;;;1.50;;
25615;SDS011;13482;48.234;13.006;2023-02-01T05:14:28;2.33;;;1.48;;
25615;SDS011;13482;48.234;13.006;2023-02-01T05:16:55;2.20;;;1.50;;
25615;SDS011;13482;48.234;13.006;2023-02-01T05:19:22;2.42;;;1.42;;
25615;SDS011;13482;48.234;13.006;2023-02-01T05:21:49;2.63;;;1.60;;
25615;SDS011;13482;48.234;13.006;2023-02-01T05:24:16;2.58;;;1.63;;
25615;SDS011;13482;48.234;13.006;2023-02-01T05:26:47;2.40;;;1.48;;
25615;SDS011;13482;48.234;13.006;2023-02-01T05:29:15;3.75;;;1.80;;
25615;SDS011;13482;48.234;13.006;2023-02-01T05:31:44;3.15;;;1.80;;
25615;SDS011;13482;48.234;13.006;2023-02-01T05:34:13;2.35;;;1.42;;
25615;SDS011;13482;48.234;13.006;2023-02-01T05:36:41;2.05;;;1.33;;
25615;SDS011;13482;48.234;13.006;2023-02-01T05:39:08;2.17;;;1.27;;
25615;SDS011;13482;48.234;13.006;2023-02-01T05:41:36;2.53;;;1.55;;
25615;SDS011;13482;48.234;13.006;2023-02-01T05:44:03;2.30;;;1.42;;
25615;SDS011;13482;48.234;13.006;2023-02-01T05:46:34;2.10;;;1.48;;
25615;SDS011;13482;48.234;13.006;2023-02-01T05:49:02;2.20;;;1.40;;
25615;SDS011;13482;48.234;13.006;2023-02-01T05:51:30;2.50;;;1.40;;
25615;SDS011;13482;48.234;13.006;2023-02-01T05:53:57;2.55;;;1.55;;
25615;SDS011;13482;48.234;13.006;2023-02-01T05:56:24;2.58;;;1.35;;
25615;SDS011;13482;48.234;13.006;2023-02-01T05:58:51;2.35;;;1.50;;
25615;SDS011;13482;48.234;13.006;2023-02-01T06:01:19;2.22;;;1.30;;
25615;SDS011;13482;48.234;13.006;2023-02-01T06:03:46;2.20;;;1.30;;
25615;SDS011;13482;48.234;13.006;2023-02-01T06:06:13;2.90;;;1.20;;
25615;SDS011;13482;48.234;13.006;2023-02-01T06:08:40;2.55;;;1.52;;
25615;SDS011;13482;48.234;13.006;2023-02-01T06:11:07;2.47;;;1.40;;
25615;SDS011;13482;48.234;13.006;2023-02-01T06:13:38;2.03;;;1.20;;
25615;SDS011;13482;48.234;13.006;2023-02-01T06:16:05;2.92;;;1.30;;
25615;SDS011;13482;48.234;13.006;2023-02-01T06:18:34;3.40;;;1.35;;
25615;SDS011;13482;48.234;13.006;2023-02-01T06:21:02;2.58;;;1.30;;
25615;SDS011;13482;48.234;13.006;2023-02-01T06:23:29;1.95;;;1.17;;
25615;SDS011;13482;48.234;13.006;2023-02-01T06:25:58;2.63;;;1.52;;
25615;SDS011;13482;48.234;13.006;2023-02-01T06:28:28;2.85;;;1.40;;
25615;SDS011;13482;48.234;13.006;2023-02-01T06:30:57;2.03;;;1.30;;
25615;SDS011;13482;48.234;13.006;2023-02-01T06:33:29;2.38;;;1.30;;
25615;SDS011;13482;48.234;13.006;2023-02-01T06:36:00;1.67;;;1.17;;
25615;SDS011;13482;48.234;13.006;2023-02-01T06:38:30;2.03;;;1.27;;
25615;SDS011;13482;48.234;13.006;2023-02-01T06:40:57;2.25;;;1.27;;
25615;SDS011;13482;48.234;13.006;2023-02-01T06:43:25;1.80;;;1.17;;
25615;SDS011;13482;48.234;13.006;2023-02-01T06:45:53;3.60;;;1.40;;
25615;SDS011;13482;48.234;13.006;2023-02-01T06:48:27;2.25;;;1.00;;
25615;SDS011;13482;48.234;13.006;2023-02-01T06:50:54;2.00;;;1.33;;
25615;SDS011;13482;48.234;13.006;2023-02-01T06:53:21;2.42;;;1.30;;
25615;SDS011;13482;48.234;13.006;2023-02-01T06:55:52;2.28;;;1.40;;
25615;SDS011;13482;48.234;13.006;2023-02-01T06:58:27;2.10;;;1.30;;
25615;SDS011;13482;48.234;13.006;2023-02-01T07:00:57;2.88;;;1.40;;
25615;SDS011;13482;48.234;13.006;2023-02-01T07:03:25;2.20;;;1.40;;
25615;SDS011;13482;48.234;13.006;2023-02-01T07:05:54;3.05;;;1.50;;
25615;SDS011;13482;48.234;13.006;2023-02-01T07:08:26;4.50;;;2.47;;
25615;SDS011;13482;48.234;13.006;2023-02-01T07:10:54;7.00;;;4.90;;
25615;SDS011;13482;48.234;13.006;2023-02-01T07:13:22;9.63;;;6.53;;
25615;SDS011;13482;48.234;13.006;2023-02-01T07:15:49;7.80;;;5.03;;
25615;SDS011;13482;48.234;13.006;2023-02-01T07:18:16;6.78;;;4.38;;
25615;SDS011;13482;48.234;13.006;2023-02-01T07:20:46;5.88;;;3.17;;
25615;SDS011;13482;48.234;13.006;2023-02-01T07:23:17;4.63;;;2.78;;
25615;SDS011;13482;48.234;13.006;2023-02-01T07:25:45;3.83;;;2.10;;
25615;SDS011;13482;48.234;13.006;2023-02-01T07:28:13;3.45;;;1.90;;
25615;SDS011;13482;48.234;13.006;2023-02-01T07:30:40;3.65;;;1.95;;
25615;SDS011;13482;48.234;13.006;2023-02-01T07:33:08;3.33;;;2.00;;
25615;SDS011;13482;48.234;13.006;2023-02-01T07:35:35;3.90;;;1.98;;
25615;SDS011;13482;48.234;13.006;2023-02-01T07:38:02;3.10;;;1.70;;
25615;SDS011;13482;48.234;13.006;2023-02-01T07:40:29;2.47;;;1.70;;
25615;SDS011;13482;48.234;13.006;2023-02-01T07:42:56;3.45;;;1.50;;
25615;SDS011;13482;48.234;13.006;2023-02-01T07:45:24;3.00;;;1.70;;
25615;SDS011;13482;48.234;13.006;2023-02-01T07:47:52;4.00;;;2.00;;
25615;SDS011;13482;48.234;13.006;2023-02-01T07:50:19;2.85;;;1.77;;
25615;SDS011;13482;48.234;13.006;2023-02-01T07:52:47;4.40;;;2.00;;
25615;SDS011;13482;48.234;13.006;2023-02-01T07:55:14;3.70;;;2.03;;
25615;SDS011;13482;48.234;13.006;2023-02-01T07:57:41;6.18;;;3.38;;
25615;SDS011;13482;48.234;13.006;2023-02-01T08:00:08;7.07;;;3.63;;
25615;SDS011;13482;48.234;13.006;2023-02-01T08:02:57;8.82;;;4.75;;
25615;SDS011;13482;48.234;13.006;2023-02-01T08:05:25;8.00;;;3.80;;
25615;SDS011;13482;48.234;13.006;2023-02-01T08:07:53;6.15;;;3.40;;
25615;SDS011;13482;48.234;13.006;2023-02-01T08:10:20;6.57;;;3.88;;
25615;SDS011;13482;48.234;13.006;2023-02-01T08:12:47;5.88;;;3.28;;
25615;SDS011;13482;48.234;13.006;2023-02-01T08:15:15;6.60;;;3.10;;
25615;SDS011;13482;48.234;13.006;2023-02-01T08:17:48;5.22;;;3.05;;
25615;SDS011;13482;48.234;13.006;2023-02-01T08:20:20;4.43;;;2.53;;
25615;SDS011;13482;48.234;13.006;2023-02-01T08:22:53;3.78;;;2.20;;
25615;SDS011;13482;48.234;13.006;2023-02-01T08:25:21;3.20;;;1.92;;
25615;SDS011;13482;48.234;13.006;2023-02-01T08:27:49;2.97;;;1.85;;
25615;SDS011;13482;48.234;13.006;2023-02-01T08:30:17;2.95;;;1.70;;
25615;SDS011;13482;48.234;13.006;2023-02-01T08:32:44;3.25;;;1.70;;
25615;SDS011;13482;48.234;13.006;2023-02-01T08:35:11;2.58;;;1.73;;
25615;SDS011;13482;48.234;13.006;2023-02-01T08:37:38;3.08;;;2.00;;
25615;SDS011;13482;48.234;13.006;2023-02-01T08:40:06;3.00;;;1.77;;
25615;SDS011;13482;48.234;13.006;2023-02-01T08:42:34;2.47;;;1.50;;
25615;SDS011;13482;48.234;13.006;2023-02-01T08:45:21;3.10;;;2.00;;
25615;SDS011;13482;48.234;13.006;2023-02-01T08:47:52;3.55;;;1.85;;
25615;SDS011;13482;48.234;13.006;2023-02-01T08:50:20;4.10;;;2.50;;
25615;SDS011;13482;48.234;13.006;2023-02-01T08:52:49;5.00;;;3.38;;
25615;SDS011;13482;48.234;13.006;2023-02-01T08:55:17;5.43;;;3.03;;
25615;SDS011;13482;48.234;13.006;2023-02-01T08:57:44;3.70;;;2.50;;
25615;SDS011;13482;48.234;13.006;2023-02-01T09:00:12;2.85;;;1.80;;
25615;SDS011;13482;48.234;13.006;2023-02-01T09:02:42;3.75;;;2.53;;
25615;SDS011;13482;48.234;13.006;2023-02-01T09:05:10;3.08;;;1.75;;
25615;SDS011;13482;48.234;13.006;2023-02-01T09:07:38;2.22;;;1.52;;
25615;SDS011;13482;48.234;13.006;2023-02-01T09:10:05;2.88;;;1.70;;
25615;SDS011;13482;48.234;13.006;2023-02-01T09:12:33;4.57;;;2.55;;
25615;SDS011;13482;48.234;13.006;2023-02-01T09:15:01;3.53;;;2.30;;
25615;SDS011;13482;48.234;13.006;2023-02-01T09:17:29;3.60;;;1.65;;
25615;SDS011;13482;48.234;13.006;2023-02-01T09:19:57;2.65;;;1.70;;
25615;SDS011;13482;48.234;13.006;2023-02-01T09:22:24;2.53;;;1.60;;
25615;SDS011;13482;48.234;13.006;2023-02-01T09:24:51;2.60;;;1.42;;
25615;SDS011;13482;48.234;13.006;2023-02-01T09:27:20;2.38;;;1.30;;
25615;SDS011;13482;48.234;13.006;2023-02-01T09:29:48;2.00;;;1.27;;
25615;SDS011;13482;48.234;13.006;2023-02-01T09:32:19;2.78;;;1.48;;
25615;SDS011;13482;48.234;13.006;2023-02-01T09:34:52;2.05;;;1.40;;
25615;SDS011;13482;48.234;13.006;2023-02-01T09:37:19;3.33;;;1.67;;
25615;SDS011;13482;48.234;13.006;2023-02-01T09:39:47;2.10;;;1.20;;
25615;SDS011;13482;48.234;13.006;2023-02-01T09:45:14;2.22;;;1.35;;
25615;SDS011;13482;48.234;13.006;2023-02-01T09:47:54;2.70;;;1.40;;
25615;SDS011;13482;48.234;13.006;2023-02-01T09:50:37;2.83;;;1.55;;
25615;SDS011;13482;48.234;13.006;2023-02-01T09:53:15;2.08;;;1.17;;
25615;SDS011;13482;48.234;13.006;2023-02-01T09:55:53;3.22;;;1.50;;
25615;SDS011;13482;48.234;13.006;2023-02-01T09:58:35;2.53;;;1.40;;
25615;SDS011;13482;48.234;13.006;2023-02-01T10:01:13;2.53;;;1.40;;
25615;SDS011;13482;48.234;13.006;2023-02-01T10:03:48;2.35;;;1.27;;
25615;SDS011;13482;48.234;13.006;2023-02-01T10:24:00;2.90;;;1.52;;
25615;SDS011;13482;48.234;13.006;2023-02-01T10:26:42;2.45;;;1.13;;
25615;SDS011;13482;48.234;13.006;2023-02-01T10:29:24;3.22;;;1.30;;
25615;SDS011;13482;48.234;13.006;2023-02-01T10:31:59;1.92;;;1.10;;
25615;SDS011;13482;48.234;13.006;2023-02-01T10:34:32;2.60;;;1.27;;
25615;SDS011;13482;48.234;13.006;2023-02-01T10:37:23;1.90;;;1.10;;
25615;SDS011;13482;48.234;13.006;2023-02-01T10:40:00;1.67;;;1.15;;
25615;SDS011;13482;48.234;13.006;2023-02-01T10:42:42;3.70;;;1.35;;
25615;SDS011;13482;48.234;13.006;2023-02-01T10:45:12;2.30;;;1.35;;
25615;SDS011;13482;48.234;13.006;2023-02-01T10:47:44;2.20;;;1.20;;
25615;SDS011;13482;48.234;13.006;2023-02-01T10:53:02;2.50;;;1.30;;
25615;SDS011;13482;48.234;13.006;2023-02-01T10:55:48;2.80;;;1.00;;
25615;SDS011;13482;48.234;13.006;2023-02-01T11:00:53;4.47;;;1.20;;
25615;SDS011;13482;48.234;13.006;2023-02-01T11:06:21;3.10;;;1.30;;
25615;SDS011;13482;48.234;13.006;2023-02-01T11:14:14;3.97;;;1.20;;
25615;SDS011;13482;48.234;13.006;2023-02-01T11:16:48;2.40;;;1.10;;
25615;SDS011;13482;48.234;13.006;2023-02-01T11:19:19;2.28;;;1.20;;
25615;SDS011;13482;48.234;13.006;2023-02-01T11:21:54;2.05;;;1.15;;
25615;SDS011;13482;48.234;13.006;2023-02-01T11:24:44;1.30;;;0.90;;
25615;SDS011;13482;48.234;13.006;2023-02-01T11:27:14;2.38;;;1.08;;
25615;SDS011;13482;48.234;13.006;2023-02-01T11:29:53;3.83;;;1.10;;
25615;SDS011;13482;48.234;13.006;2023-02-01T11:32:25;2.65;;;1.17;;
25615;SDS011;13482;48.234;13.006;2023-02-01T11:34:55;1.88;;;1.08;;
25615;SDS011;13482;48.234;13.006;2023-02-01T11:37:28;2.67;;;1.30;;
25615;SDS011;13482;48.234;13.006;2023-02-01T11:42:54;2.50;;;1.40;;
25615;SDS011;13482;48.234;13.006;2023-02-01T11:45:41;2.72;;;1.20;;
25615;SDS011;13482;48.234;13.006;2023-02-01T11:48:26;3.65;;;1.40;;
25615;SDS011;13482;48.234;13.006;2023-02-01T11:53:53;5.15;;;1.70;;
25615;SDS011;13482;48.234;13.006;2023-02-01T12:10:50;2.85;;;1.25;;
25615;SDS011;13482;48.234;13.006;2023-02-01T12:19:21;6.13;;;1.33;;
25615;SDS011;13482;48.234;13.006;2023-02-01T12:25:20;3.28;;;1.25;;
25615;SDS011;13482;48.234;13.006;2023-02-01T12:34:12;3.00;;;1.00;;
25615;SDS011;13482;48.234;13.006;2023-02-01T12:43:22;2.78;;;1.13;;
25615;SDS011;13482;48.234;13.006;2023-02-01T12:46:14;3.13;;;1.30;;
25615;SDS011;13482;48.234;13.006;2023-02-01T12:52:29;2.65;;;1.38;;
25615;SDS011;13482;48.234;13.006;2023-02-01T12:58:23;2.40;;;1.20;;
25615;SDS011;13482;48.234;13.006;2023-02-01T13:01:02;3.13;;;1.10;;
25615;SDS011;13482;48.234;13.006;2023-02-01T13:03:41;2.88;;;1.30;;
25615;SDS011;13482;48.234;13.006;2023-02-01T13:06:43;4.20;;;1.30;;
25615;SDS011;13482;48.234;13.006;2023-02-01T13:09:22;3.30;;;1.50;;
25615;SDS011;13482;48.234;13.006;2023-02-01T13:11:59;3.60;;;1.50;;
25615;SDS011;13482;48.234;13.006;2023-02-01T13:14:59;4.30;;;1.83;;
25615;SDS011;13482;48.234;13.006;2023-02-01T13:17:49;3.25;;;1.70;;
25615;SDS011;13482;48.234;13.006;2023-02-01T13:20:25;3.25;;;1.50;;
25615;SDS011;13482;48.234;13.006;2023-02-01T13:26:00;3.47;;;1.48;;
25615;SDS011;13482;48.234;13.006;2023-02-01T13:28:42;2.92;;;1.35;;
25615;SDS011;13482;48.234;13.006;2023-02-01T13:37:28;2.70;;;1.55;;
25615;SDS011;13482;48.234;13.006;2023-02-01T13:45:43;5.63;;;1.67;;
25615;SDS011;13482;48.234;13.006;2023-02-01T13:48:19;4.22;;;2.00;;
25615;SDS011;13482;48.234;13.006;2023-02-01T13:51:02;6.07;;;2.17;;
25615;SDS011;13482;48.234;13.006;2023-02-01T13:53:30;3.88;;;2.00;;
25615;SDS011;13482;48.234;13.006;2023-02-01T13:56:04;3.20;;;1.77;;
25615;SDS011;13482;48.234;13.006;2023-02-01T13:58:40;4.05;;;1.80;;
25615;SDS011;13482;48.234;13.006;2023-02-01T14:03:49;6.72;;;2.03;;
25615;SDS011;13482;48.234;13.006;2023-02-01T14:11:36;3.55;;;1.50;;
25615;SDS011;13482;48.234;13.006;2023-02-01T14:14:51;4.30;;;1.88;;
25615;SDS011;13482;48.234;13.006;2023-02-01T14:19:32;6.32;;;1.70;;
25615;SDS011;13482;48.234;13.006;2023-02-01T14:22:30;7.80;;;2.00;;
25615;SDS011;13482;48.234;13.006;2023-02-01T14:24:54;3.53;;;1.60;;
25615;SDS011;13482;48.234;13.006;2023-02-01T14:27:24;2.42;;;1.30;;
25615;SDS011;13482;48.234;13.006;2023-02-01T14:29:59;4.78;;;1.55;;
25615;SDS011;13482;48.234;13.006;2023-02-01T14:32:34;5.45;;;2.00;;
25615;SDS011;13482;48.234;13.006;2023-02-01T14:35:16;6.32;;;1.95;;
25615;SDS011;13482;48.234;13.006;2023-02-01T14:37:58;7.70;;;2.35;;
25615;SDS011;13482;48.234;13.006;2023-02-01T14:40:33;4.72;;;1.80;;
25615;SDS011;13482;48.234;13.006;2023-02-01T14:43:02;4.80;;;1.77;;
25615;SDS011;13482;48.234;13.006;2023-02-01T14:50:33;5.43;;;2.95;;
25615;SDS011;13482;48.234;13.006;2023-02-01T15:01:31;6.10;;;2.58;;
25615;SDS011;13482;48.234;13.006;2023-02-01T15:04:03;4.78;;;2.53;;
25615;SDS011;13482;48.234;13.006;2023-02-01T15:06:40;8.05;;;4.30;;
25615;SDS011;13482;48.234;13.006;2023-02-01T15:09:17;5.05;;;2.20;;
25615;SDS011;13482;48.234;13.006;2023-02-01T15:14:45;4.40;;;1.42;;
25615;SDS011;13482;48.234;13.006;2023-02-01T15:17:36;4.35;;;1.50;;
25615;SDS011;13482;48.234;13.006;2023-02-01T15:20:17;4.95;;;1.55;;
25615;SDS011;13482;48.234;13.006;2023-02-01T15:25:33;2.95;;;1.48;;
25615;SDS011;13482;48.234;13.006;2023-02-01T15:28:05;4.15;;;1.10;;
25615;SDS011;13482;48.234;13.006;2023-02-01T15:30:39;2.95;;;1.08;;
25615;SDS011;13482;48.234;13.006;2023-02-01T15:33:24;3.47;;;1.17;;
25615;SDS011;13482;48.234;13.006;2023-02-01T15:36:06;2.90;;;1.30;;
25615;SDS011;13482;48.234;13.006;2023-02-01T15:38:44;2.75;;;1.38;;
25615;SDS011;13482;48.234;13.006;2023-02-01T15:41:13;5.63;;;2.08;;
25615;SDS011;13482;48.234;13.006;2023-02-01T15:43:48;11.15;;;7.00;;
25615;SDS011;13482;48.234;13.006;2023-02-01T15:46:33;7.30;;;4.15;;
25615;SDS011;13482;48.234;13.006;2023-02-01T15:49:19;5.28;;;2.30;;
25615;SDS011;13482;48.234;13.006;2023-02-01T15:52:00;3.70;;;1.70;;
25615;SDS011;13482;48.234;13.006;2023-02-01T15:54:30;5.05;;;1.65;;
25615;SDS011;13482;48.234;13.006;2023-02-01T15:57:13;2.70;;;1.50;;
25615;SDS011;13482;48.234;13.006;2023-02-01T15:59:49;4.00;;;1.88;;
25615;SDS011;13482;48.234;13.006;2023-02-01T16:02:41;5.63;;;3.33;;
25615;SDS011;13482;48.234;13.006;2023-02-01T16:05:35;5.18;;;2.40;;
25615;SDS011;13482;48.234;13.006;2023-02-01T16:08:21;3.95;;;1.90;;
25615;SDS011;13482;48.234;13.006;2023-02-01T16:10:59;5.28;;;3.38;;
25615;SDS011;13482;48.234;13.006;2023-02-01T16:13:35;4.25;;;2.60;;
25615;SDS011;13482;48.234;13.006;2023-02-01T16:16:03;4.30;;;2.13;;
25615;SDS011;13482;48.234;13.006;2023-02-01T16:18:36;13.43;;;8.73;;
25615;SDS011;13482;48.234;13.006;2023-02-01T16:21:03;10.52;;;6.78;;
25615;SDS011;13482;48.234;13.006;2023-02-01T16:23:30;33.63;;;21.80;;
25615;SDS011;13482;48.234;13.006;2023-02-01T16:25:57;16.92;;;11.20;;
25615;SDS011;13482;48.234;13.006;2023-02-01T16:28:25;25.05;;;16.20;;
25615;SDS011;13482;48.234;13.006;2023-02-01T16:30:52;16.70;;;11.60;;
25615;SDS011;13482;48.234;13.006;2023-02-01T16:33:19;33.63;;;19.60;;
25615;SDS011;13482;48.234;13.006;2023-02-01T16:35:51;22.13;;;14.93;;
25615;SDS011;13482;48.234;13.006;2023-02-01T16:38:19;30.05;;;18.20;;
25615;SDS011;13482;48.234;13.006;2023-02-01T16:40:49;21.50;;;13.15;;
25615;SDS011;13482;48.234;13.006;2023-02-01T16:43:18;14.32;;;8.93;;
25615;SDS011;13482;48.234;13.006;2023-02-01T16:45:52;6.28;;;3.90;;
25615;SDS011;13482;48.234;13.006;2023-02-01T16:48:23;6.38;;;4.90;;
25615;SDS011;13482;48.234;13.006;2023-02-01T16:51:03;5.32;;;3.47;;
25615;SDS011;13482;48.234;13.006;2023-02-01T16:53:36;3.97;;;2.55;;
25615;SDS011;13482;48.234;13.006;2023-02-01T16:56:20;3.58;;;1.95;;
25615;SDS011;13482;48.234;13.006;2023-02-01T16:58:56;4.18;;;1.58;;
25615;SDS011;13482;48.234;13.006;2023-02-01T17:01:24;4.80;;;1.35;;
25615;SDS011;13482;48.234;13.006;2023-02-01T17:03:51;3.70;;;1.20;;
25615;SDS011;13482;48.234;13.006;2023-02-01T17:06:23;2.42;;;1.08;;
25615;SDS011;13482;48.234;13.006;2023-02-01T17:08:54;3.03;;;1.33;;
25615;SDS011;13482;48.234;13.006;2023-02-01T17:11:27;2.97;;;1.15;;
25615;SDS011;13482;48.234;13.006;2023-02-01T17:13:56;4.30;;;2.03;;
25615;SDS011;13482;48.234;13.006;2023-02-01T17:16:48;8.20;;;5.32;;
25615;SDS011;13482;48.234;13.006;2023-02-01T17:21:51;6.05;;;3.70;;
25615;SDS011;13482;48.234;13.006;2023-02-01T17:24:23;5.13;;;2.60;;
25615;SDS011;13482;48.234;13.006;2023-02-01T17:27:13;4.68;;;1.60;;
25615;SDS011;13482;48.234;13.006;2023-02-01T17:29:41;3.67;;;1.63;;
25615;SDS011;13482;48.234;13.006;2023-02-01T17:32:15;3.47;;;1.77;;
25615;SDS011;13482;48.234;13.006;2023-02-01T17:34:46;3.92;;;1.83;;
25615;SDS011;13482;48.234;13.006;2023-02-01T17:37:25;5.03;;;1.90;;
25615;SDS011;13482;48.234;13.006;2023-02-01T17:40:00;3.95;;;1.40;;
25615;SDS011;13482;48.234;13.006;2023-02-01T17:42:28;4.03;;;1.48;;
25615;SDS011;13482;48.234;13.006;2023-02-01T17:44:57;4.95;;;1.30;;
25615;SDS011;13482;48.234;13.006;2023-02-01T17:47:29;3.15;;;1.30;;
25615;SDS011;13482;48.234;13.006;2023-02-01T17:49:56;3.20;;;1.38;;
25615;SDS011;13482;48.234;13.006;2023-02-01T17:52:23;4.57;;;1.60;;
25615;SDS011;13482;48.234;13.006;2023-02-01T17:54:51;3.38;;;1.15;;